Lopatcong, New Jersey
Current Conditions -  °F | °C
As of 11:51 AM on Tuesday 27 Jan 2015 (Local Time) from KABE Reporting Station
Broken Clouds Broken Clouds  
Wind Chill: 18°   Ceiling: 7500
Heat Index: 28°   Visibility: 10mi
Dew Point:   Wind: 12mph
Humidity: 36%   Direction: 340°NNW
Pressure: 29.75"   Gusts: NA
Location:  40.7083°N, 75.1472°W
Report Text: KABE 271651Z 34010KT 10SM BKN075 M02/M16 A2975 RMK AO2 SLP080 T10221156
Loading
Personal Weather Stations






























Interactive Weather Map New forecast layout! Learn more

10-Day Weather Forecast

Advertisements
Track Severe Weather on mobile